Time;durP1;ratioP1;P1;durP2;ratioP2;P2;SDS_P1;SDS_P2;PMS_P1;PMS_P2;Temp;Humidity;BMP_temperature;BMP_pressure;BME280_temperature;BME280_humidity;BME280_pressure;Samples;Min_cycle;Max_cycle;Signal;HPM_P1;HPM_P2
2022/11/24 00:02:14;;;;;;;7.37;3.60;;;7.10;99.90;;;;;;5014068;28;20485;-59
2022/11/24 00:04:41;;;;;;;9.30;3.30;;;7.10;99.90;;;;;;5013876;28;20494;-58
2022/11/24 00:07:10;;;;;;;9.93;3.70;;;7.10;99.90;;;;;;5013868;28;20566;-59
2022/11/24 00:09:37;;;;;;;11.20;3.50;;;7.10;99.90;;;;;;5013800;28;20852;-59
2022/11/24 00:12:05;;;;;;;11.23;3.10;;;7.10;99.90;;;;;;5012599;28;20479;-59
2022/11/24 00:14:32;;;;;;;6.40;3.17;;;7.00;99.90;;;;;;5013718;28;20538;-59
2022/11/24 00:16:59;;;;;;;8.20;2.80;;;7.10;99.90;;;;;;5013622;28;20909;-59
2022/11/24 00:19:26;;;;;;;13.33;4.37;;;7.10;99.90;;;;;;5014028;28;20475;-58
2022/11/24 00:21:53;;;;;;;8.10;3.50;;;7.10;99.90;;;;;;5013687;28;20449;-59
2022/11/24 00:24:22;;;;;;;8.07;3.43;;;7.10;99.90;;;;;;5013649;28;20571;-59
2022/11/24 00:26:49;;;;;;;5.73;3.67;;;7.10;99.90;;;;;;5014106;28;20563;-58
2022/11/24 00:29:17;;;;;;;11.13;3.37;;;7.20;99.90;;;;;;5013587;28;20530;-58
2022/11/24 00:31:44;;;;;;;8.20;4.73;;;7.20;99.90;;;;;;5013906;28;20526;-59
2022/11/24 00:34:12;;;;;;;4.03;3.63;;;7.20;99.90;;;;;;5013456;28;20903;-59
2022/11/24 00:36:40;;;;;;;13.17;3.27;;;7.20;99.90;;;;;;5013550;28;20494;-59
2022/11/24 00:39:11;;;;;;;11.33;3.37;;;7.20;99.90;;;;;;5013494;28;21092;-58
2022/11/24 00:41:40;;;;;;;8.13;3.50;;;7.20;99.90;;;;;;5013857;28;20443;-58
2022/11/24 00:44:07;;;;;;;10.23;3.63;;;7.30;99.90;;;;;;5013809;28;20530;-58
2022/11/24 00:46:34;;;;;;;5.03;2.83;;;7.30;99.90;;;;;;5013449;28;21048;-59
2022/11/24 00:49:02;;;;;;;5.20;3.07;;;7.30;99.90;;;;;;5013782;28;20522;-59
2022/11/24 00:51:29;;;;;;;6.80;2.80;;;7.40;99.90;;;;;;5013741;28;20455;-59
2022/11/24 00:53:57;;;;;;;8.63;3.70;;;7.40;99.90;;;;;;5013741;28;20454;-59
2022/11/24 00:56:24;;;;;;;8.50;3.50;;;7.40;99.90;;;;;;5013354;28;20507;-59
2022/11/24 00:58:53;;;;;;;10.27;3.60;;;7.50;99.90;;;;;;5013255;28;20856;-59
2022/11/24 01:01:22;;;;;;;3.40;2.47;;;7.40;99.90;;;;;;5013782;28;20479;-59
2022/11/24 01:03:49;;;;;;;10.20;3.83;;;7.40;99.90;;;;;;5013518;28;20538;-58
2022/11/24 01:06:19;;;;;;;3.93;2.73;;;7.30;99.90;;;;;;5017684;28;20474;-58
2022/11/24 01:08:47;;;;;;;5.57;3.37;;;7.30;99.90;;;;;;5017093;28;20514;-59
2022/11/24 01:11:15;;;;;;;6.50;3.40;;;7.20;99.90;;;;;;5016764;28;20780;-59
2022/11/24 01:13:45;;;;;;;10.87;3.80;;;7.20;99.90;;;;;;5017279;28;20474;-58
2022/11/24 01:16:21;;;;;;;5.60;3.50;;;7.20;99.90;;;;;;5017243;28;20478;-59
2022/11/24 01:18:49;;;;;;;7.97;3.00;;;7.20;99.90;;;;;;5016813;28;20988;-58
2022/11/24 01:21:17;;;;;;;8.00;3.17;;;7.00;99.90;;;;;;5017149;28;20473;-58
2022/11/24 01:23:44;;;;;;;4.83;3.40;;;7.10;99.90;;;;;;5016770;28;20537;-58
2022/11/24 01:26:13;;;;;;;5.73;3.17;;;7.10;99.90;;;;;;5016971;28;20522;-58
2022/11/24 01:28:40;;;;;;;9.33;3.40;;;7.00;99.90;;;;;;5016733;28;20953;-58
2022/11/24 01:31:08;;;;;;;7.87;3.23;;;7.00;99.90;;;;;;5016858;28;20482;-58
2022/11/24 01:33:37;;;;;;;5.30;2.80;;;7.00;99.90;;;;;;5016878;28;20487;-59
2022/11/24 01:36:06;;;;;;;8.23;3.13;;;7.00;99.90;;;;;;5016881;28;20510;-58
2022/11/24 01:38:33;;;;;;;5.37;3.10;;;7.00;99.90;;;;;;5016679;28;20908;-58
2022/11/24 01:41:02;;;;;;;9.30;2.90;;;6.90;99.90;;;;;;5016446;28;20513;-58
2022/11/24 01:43:29;;;;;;;4.57;2.83;;;6.90;99.90;;;;;;5017270;28;20848;-59
2022/11/24 01:45:58;;;;;;;8.73;3.60;;;7.00;99.90;;;;;;5016712;28;20499;-59
2022/11/24 01:48:30;;;;;;;8.80;3.20;;;7.00;99.90;;;;;;5016581;28;20446;-59
2022/11/24 01:51:07;;;;;;;5.73;2.80;;;7.10;99.90;;;;;;5016271;28;20957;-59
2022/11/24 01:53:34;;;;;;;5.60;3.47;;;7.10;99.90;;;;;;5016250;28;20917;-59
2022/11/24 01:56:02;;;;;;;7.43;3.30;;;7.20;99.90;;;;;;5016406;28;20900;-59
2022/11/24 01:58:32;;;;;;;7.90;3.20;;;7.20;99.90;;;;;;5016076;28;20483;-58
2022/11/24 02:01:00;;;;;;;3.97;3.67;;;7.30;99.90;;;;;;5016444;28;20835;-59
2022/11/24 02:03:30;;;;;;;7.00;3.00;;;7.30;99.90;;;;;;5016052;28;20977;-59
2022/11/24 02:06:03;;;;;;;10.07;3.07;;;7.30;99.90;;;;;;5015983;28;20475;-59
2022/11/24 02:08:35;;;;;;;9.07;3.30;;;7.30;99.90;;;;;;5016296;28;20497;-58
2022/11/24 02:11:05;;;;;;;7.70;3.47;;;7.40;99.90;;;;;;5015956;28;20513;-59
2022/11/24 02:13:34;;;;;;;10.80;4.43;;;7.40;99.90;;;;;;5016128;28;20475;-59
2022/11/24 02:16:02;;;;;;;6.30;2.83;;;7.40;99.90;;;;;;5014910;28;20498;-59
2022/11/24 02:18:29;;;;;;;4.97;2.73;;;7.40;99.90;;;;;;5016041;28;20485;-59
2022/11/24 02:20:58;;;;;;;9.43;2.87;;;7.40;99.90;;;;;;5015604;28;20938;-58
2022/11/24 02:23:34;;;;;;;6.00;2.97;;;7.50;99.90;;;;;;5015887;28;20479;-59
2022/11/24 02:26:08;;;;;;;18.70;5.50;;;7.50;99.90;;;;;;5015512;28;20993;-58
2022/11/24 02:28:38;;;;;;;5.07;2.90;;;7.50;99.90;;;;;;5015732;28;20514;-59
2022/11/24 02:31:05;;;;;;;9.57;4.07;;;7.50;99.90;;;;;;5015478;28;20538;-59
2022/11/24 02:33:34;;;;;;;11.23;3.47;;;7.50;99.90;;;;;;5015746;28;20479;-59
2022/11/24 02:36:01;;;;;;;6.77;2.80;;;7.60;99.90;;;;;;5015918;28;20565;-59
2022/11/24 02:38:31;;;;;;;6.37;2.87;;;7.60;99.90;;;;;;5015609;28;20536;-59
2022/11/24 02:41:00;;;;;;;4.03;2.37;;;7.60;99.90;;;;;;5015316;28;20458;-59
2022/11/24 02:43:30;;;;;;;7.50;3.00;;;7.70;99.90;;;;;;5015540;28;20498;-59
2022/11/24 02:45:59;;;;;;;5.23;2.80;;;7.70;99.90;;;;;;5015170;28;20481;-62
2022/11/24 02:48:27;;;;;;;6.30;3.10;;;7.70;99.90;;;;;;5015162;28;20526;-59
2022/11/24 02:50:54;;;;;;;6.17;3.40;;;7.70;99.90;;;;;;5015437;28;20478;-59
2022/11/24 02:53:21;;;;;;;8.67;3.67;;;7.70;99.90;;;;;;5015100;28;20486;-59
2022/11/24 02:55:48;;;;;;;5.23;2.83;;;7.70;99.90;;;;;;5015312;28;20503;-59
2022/11/24 02:58:15;;;;;;;6.43;3.40;;;7.70;99.90;;;;;;5014924;28;21020;-59
2022/11/24 03:00:43;;;;;;;4.63;2.30;;;7.60;99.90;;;;;;5015297;28;20530;-59
2022/11/24 03:03:11;;;;;;;3.53;2.47;;;7.50;99.90;;;;;;5015221;28;20447;-59
2022/11/24 03:05:39;;;;;;;5.17;3.20;;;7.50;99.90;;;;;;5014757;28;20993;-59
2022/11/24 03:08:06;;;;;;;7.73;3.07;;;7.40;99.90;;;;;;5015007;28;20539;-59
2022/11/24 03:10:33;;;;;;;7.30;3.10;;;7.40;99.90;;;;;;5014607;28;20479;-59
2022/11/24 03:13:00;;;;;;;3.50;3.00;;;7.30;99.90;;;;;;5014964;28;20431;-59
2022/11/24 03:15:28;;;;;;;4.47;2.90;;;7.30;99.90;;;;;;5014636;28;20506;-59
2022/11/24 03:17:55;;;;;;;5.20;2.70;;;7.30;99.90;;;;;;5014589;28;20538;-58
2022/11/24 03:20:25;;;;;;;4.43;2.30;;;7.30;99.90;;;;;;5014602;28;20455;-58
2022/11/24 03:22:52;;;;;;;6.73;2.93;;;7.30;99.90;;;;;;5014633;28;20667;-58
2022/11/24 03:25:19;;;;;;;4.13;2.87;;;7.30;99.90;;;;;;5014608;28;20525;-59
2022/11/24 03:27:47;;;;;;;5.50;2.50;;;7.20;99.90;;;;;;5014750;28;20534;-58
2022/11/24 03:30:15;;;;;;;5.07;2.97;;;7.20;99.90;;;;;;5014415;28;20530;-59
2022/11/24 03:32:42;;;;;;;5.60;2.70;;;7.20;99.90;;;;;;5014713;28;20486;-58
2022/11/24 03:35:10;;;;;;;3.27;2.40;;;7.20;99.90;;;;;;5014194;28;20557;-58
2022/11/24 03:37:38;;;;;;;7.20;2.90;;;7.30;99.90;;;;;;5014640;28;20479;-58
2022/11/24 03:40:07;;;;;;;7.10;4.27;;;7.20;99.90;;;;;;5014492;28;20515;-58
2022/11/24 03:42:34;;;;;;;3.93;2.50;;;7.20;99.90;;;;;;5014548;28;20529;-58
2022/11/24 03:45:01;;;;;;;3.10;2.13;;;7.20;99.90;;;;;;5014437;28;20562;-59
2022/11/24 03:47:28;;;;;;;6.40;2.77;;;7.20;99.90;;;;;;5014192;28;20448;-59
2022/11/24 03:49:56;;;;;;;3.53;2.50;;;7.20;99.90;;;;;;5014442;28;20497;-59
2022/11/24 03:52:25;;;;;;;9.20;2.70;;;7.20;99.90;;;;;;5014423;28;20876;-58
2022/11/24 03:54:54;;;;;;;5.00;2.67;;;7.30;99.90;;;;;;5014000;28;21017;-58
2022/11/24 03:57:21;;;;;;;9.53;2.83;;;7.30;99.90;;;;;;5014040;28;20458;-58
2022/11/24 03:59:48;;;;;;;3.70;2.63;;;7.30;99.90;;;;;;5014232;28;20561;-59
2022/11/24 04:02:15;;;;;;;6.93;2.20;;;7.30;99.90;;;;;;5014111;28;20483;-59
2022/11/24 04:04:43;;;;;;;8.50;2.77;;;7.30;99.90;;;;;;5014234;28;20486;-59
2022/11/24 04:07:10;;;;;;;4.40;2.40;;;7.20;99.90;;;;;;5014136;28;20454;-59
2022/11/24 04:09:37;;;;;;;5.63;2.60;;;7.30;99.90;;;;;;5014677;28;21001;-59
2022/11/24 04:14:51;;;;;;;2.87;2.57;;;7.20;99.90;;;;;;5014100;28;20411;-59
2022/11/24 04:17:18;;;;;;;5.70;2.60;;;7.20;99.90;;;;;;5014890;28;20479;-59
2022/11/24 04:19:45;;;;;;;3.67;2.43;;;7.10;99.90;;;;;;5014539;28;20514;-59
2022/11/24 04:22:12;;;;;;;3.83;2.97;;;7.10;99.90;;;;;;5013785;28;20534;-59
2022/11/24 04:24:39;;;;;;;4.17;2.63;;;7.10;99.90;;;;;;5014715;28;20457;-59
2022/11/24 04:27:08;;;;;;;4.87;2.43;;;7.00;99.90;;;;;;5013666;28;20539;-59
2022/11/24 04:29:35;;;;;;;3.23;2.30;;;7.10;99.90;;;;;;5013668;28;20630;-59
2022/11/24 04:32:02;;;;;;;9.50;2.50;;;7.10;99.90;;;;;;5013664;28;20926;-58
2022/11/24 04:34:30;;;;;;;5.37;2.53;;;7.10;99.90;;;;;;5013756;28;20884;-59
2022/11/24 04:36:57;;;;;;;4.13;3.13;;;7.10;99.90;;;;;;5013825;28;20447;-59
2022/11/24 04:39:24;;;;;;;6.57;2.30;;;7.10;99.90;;;;;;5014696;28;20489;-59
2022/11/24 04:41:51;;;;;;;6.20;2.63;;;7.10;99.90;;;;;;5017816;28;20530;-58
2022/11/24 04:44:20;;;;;;;3.00;2.17;;;7.10;99.90;;;;;;5017823;28;20530;-59
2022/11/24 04:46:47;;;;;;;7.00;2.60;;;7.10;99.90;;;;;;5017670;28;20503;-59
2022/11/24 04:49:14;;;;;;;5.33;3.03;;;7.10;99.90;;;;;;5017588;28;20564;-59
2022/11/24 04:51:42;;;;;;;2.93;2.37;;;7.10;99.90;;;;;;5017726;28;20455;-59
2022/11/24 04:54:11;;;;;;;3.47;2.90;;;7.10;99.90;;;;;;5017374;28;20911;-59
2022/11/24 04:56:38;;;;;;;4.37;2.73;;;7.10;99.90;;;;;;5017511;28;20883;-59
2022/11/24 04:59:05;;;;;;;7.47;2.80;;;7.10;99.90;;;;;;5017197;28;21024;-59
2022/11/24 05:01:34;;;;;;;5.50;2.60;;;7.10;99.90;;;;;;5017185;28;20538;-59
2022/11/24 05:04:01;;;;;;;4.83;3.10;;;7.10;99.90;;;;;;5017281;28;20534;-59
2022/11/24 05:06:29;;;;;;;9.43;2.80;;;7.10;99.90;;;;;;5017120;28;21004;-59
2022/11/24 05:08:56;;;;;;;4.87;2.20;;;7.10;99.90;;;;;;5017044;28;20485;-59
2022/11/24 05:11:22;;;;;;;6.67;3.33;;;7.10;99.90;;;;;;5016840;28;20514;-59
2022/11/24 05:13:49;;;;;;;6.53;2.83;;;7.10;99.90;;;;;;5017269;28;20447;-58
2022/11/24 05:16:16;;;;;;;5.13;3.10;;;7.10;99.90;;;;;;5017175;28;20554;-59
2022/11/24 05:18:45;;;;;;;12.33;2.90;;;7.10;99.90;;;;;;5016806;28;20581;-58
2022/11/24 05:21:13;;;;;;;5.53;2.97;;;7.00;99.90;;;;;;5017135;28;20492;-58
2022/11/24 05:23:40;;;;;;;9.13;2.87;;;7.00;99.90;;;;;;5017081;28;20479;-59
2022/11/24 05:26:08;;;;;;;5.77;3.27;;;7.10;99.90;;;;;;5017028;28;20507;-58
2022/11/24 05:28:35;;;;;;;7.60;2.90;;;7.10;99.90;;;;;;5017012;28;20534;-58
2022/11/24 05:31:03;;;;;;;4.07;2.47;;;7.20;99.90;;;;;;5016602;28;20455;-59
2022/11/24 05:33:32;;;;;;;6.00;2.73;;;7.10;99.90;;;;;;5016831;28;20497;-58
2022/11/24 05:36:03;;;;;;;6.73;2.70;;;7.10;99.90;;;;;;5016466;28;20886;-59
2022/11/24 05:38:30;;;;;;;5.37;3.40;;;7.20;99.90;;;;;;5017178;28;20854;-59
2022/11/24 05:41:00;;;;;;;7.07;3.73;;;7.20;99.90;;;;;;5016713;28;20450;-59
2022/11/24 05:43:28;;;;;;;12.10;3.10;;;7.10;99.90;;;;;;5016421;28;20969;-59
2022/11/24 05:45:58;;;;;;;7.63;2.83;;;7.10;99.90;;;;;;5016261;28;20473;-59
2022/11/24 05:48:25;;;;;;;7.30;2.80;;;7.20;99.90;;;;;;5016620;28;20457;-59
2022/11/24 05:50:56;;;;;;;6.17;3.07;;;7.20;99.90;;;;;;5016102;28;20474;-59
2022/11/24 05:53:25;;;;;;;6.57;2.80;;;7.20;99.90;;;;;;5016197;28;20463;-58
2022/11/24 05:55:53;;;;;;;4.33;2.67;;;7.30;99.90;;;;;;5017210;28;20477;-59
2022/11/24 05:58:20;;;;;;;4.07;3.57;;;7.30;99.90;;;;;;5016108;28;20462;-59
2022/11/24 06:00:47;;;;;;;10.00;3.07;;;7.30;99.90;;;;;;5015903;28;20570;-59
2022/11/24 06:03:15;;;;;;;7.97;3.20;;;7.40;99.90;;;;;;5015865;28;20980;-58
2022/11/24 06:05:46;;;;;;;11.63;3.20;;;7.40;99.90;;;;;;5015751;28;20582;-59
2022/11/24 06:08:14;;;;;;;11.83;2.80;;;7.40;99.90;;;;;;5016251;28;20443;-58
2022/11/24 06:10:43;;;;;;;5.53;3.33;;;7.50;99.90;;;;;;5015804;28;20511;-59
2022/11/24 06:13:10;;;;;;;11.50;3.80;;;7.50;99.90;;;;;;5016022;28;20554;-59
2022/11/24 06:15:39;;;;;;;6.40;3.00;;;7.60;99.90;;;;;;5016450;28;20554;-59
2022/11/24 06:18:06;;;;;;;6.60;2.87;;;7.60;99.90;;;;;;5015671;28;20455;-59
2022/11/24 06:20:33;;;;;;;6.83;3.00;;;7.60;99.90;;;;;;5015855;28;20483;-59
2022/11/24 06:23:01;;;;;;;4.70;2.77;;;7.60;99.90;;;;;;5015831;28;20474;-59
2022/11/24 06:25:29;;;;;;;10.80;3.40;;;7.70;99.90;;;;;;5015707;28;20503;-59
2022/11/24 06:27:58;;;;;;;7.77;3.07;;;7.70;99.90;;;;;;5015334;28;20952;-59
2022/11/24 06:30:25;;;;;;;5.83;2.70;;;7.70;99.90;;;;;;5015272;28;20535;-59
2022/11/24 06:32:55;;;;;;;7.40;2.67;;;7.70;99.90;;;;;;5015157;28;20505;-59
2022/11/24 06:35:22;;;;;;;12.80;3.37;;;7.70;99.90;;;;;;5014516;28;20521;-59
2022/11/24 06:37:49;;;;;;;4.40;2.87;;;7.70;99.90;;;;;;5015429;28;20874;-59
2022/11/24 06:40:17;;;;;;;7.27;4.07;;;7.70;99.90;;;;;;5014869;28;20515;-59
2022/11/24 06:42:51;;;;;;;13.70;3.70;;;7.80;99.90;;;;;;5015068;28;20791;-60
2022/11/24 06:45:22;;;;;;;6.03;2.90;;;7.80;99.90;;;;;;5014983;28;20463;-59
2022/11/24 06:47:49;;;;;;;11.80;2.87;;;7.80;99.90;;;;;;5014946;28;20506;-59
2022/11/24 06:50:17;;;;;;;7.87;2.63;;;7.90;99.90;;;;;;5015145;28;20447;-59
2022/11/24 06:52:44;;;;;;;6.27;3.40;;;7.90;99.90;;;;;;5014728;28;20451;-59
2022/11/24 06:55:11;;;;;;;6.93;3.00;;;7.90;99.90;;;;;;5014676;28;20498;-59
2022/11/24 06:57:39;;;;;;;6.30;2.83;;;8.00;99.90;;;;;;5014695;28;20538;-59
2022/11/24 07:00:07;;;;;;;10.67;3.97;;;7.90;99.90;;;;;;5014701;28;20518;-59
2022/11/24 07:02:37;;;;;;;12.83;3.80;;;8.00;99.90;;;;;;5014350;28;20493;-60
2022/11/24 07:05:04;;;;;;;8.47;2.80;;;8.00;99.90;;;;;;5014748;28;21036;-58
2022/11/24 07:07:32;;;;;;;6.00;3.93;;;8.10;99.90;;;;;;5014883;28;20455;-59
2022/11/24 07:09:59;;;;;;;11.83;4.10;;;8.10;99.90;;;;;;5014857;28;20569;-59
2022/11/24 07:12:28;;;;;;;6.80;3.20;;;8.10;99.90;;;;;;5014218;28;20483;-59
2022/11/24 07:14:55;;;;;;;12.07;3.90;;;8.10;99.90;;;;;;5014129;28;20475;-59
2022/11/24 07:17:22;;;;;;;10.60;4.07;;;8.20;99.90;;;;;;5014308;28;21001;-59
2022/11/24 07:19:51;;;;;;;8.07;3.30;;;8.20;99.90;;;;;;5014691;28;20523;-59
2022/11/24 07:22:18;;;;;;;8.80;3.37;;;8.20;99.90;;;;;;5014880;28;20553;-59
2022/11/24 07:24:45;;;;;;;4.67;3.13;;;8.20;99.90;;;;;;5014110;28;20542;-59
2022/11/24 07:27:12;;;;;;;13.90;3.67;;;8.20;99.90;;;;;;5014009;28;20455;-59
2022/11/24 07:29:39;;;;;;;7.43;3.47;;;8.20;99.90;;;;;;5014094;28;20521;-59
2022/11/24 07:32:07;;;;;;;4.80;3.77;;;8.20;99.90;;;;;;5013985;28;20918;-59
2022/11/24 07:34:34;;;;;;;9.90;4.00;;;8.20;99.90;;;;;;5013645;28;20525;-59
2022/11/24 07:37:03;;;;;;;8.83;3.97;;;8.20;99.90;;;;;;5013667;28;20538;-59
2022/11/24 07:39:30;;;;;;;8.63;3.90;;;8.30;99.90;;;;;;5014051;28;20562;-59
2022/11/24 07:41:59;;;;;;;8.80;3.60;;;8.20;99.90;;;;;;5013770;28;20509;-59
2022/11/24 07:44:26;;;;;;;9.60;4.13;;;8.20;99.90;;;;;;5013405;28;20447;-60
2022/11/24 07:46:53;;;;;;;6.27;4.07;;;8.10;99.90;;;;;;5013809;28;20510;-59
2022/11/24 07:49:21;;;;;;;13.33;4.50;;;8.10;99.90;;;;;;5013296;28;20561;-59
2022/11/24 07:51:48;;;;;;;6.23;3.50;;;8.20;99.90;;;;;;5013452;28;20505;-59
2022/11/24 07:54:17;;;;;;;12.03;5.13;;;8.20;99.90;;;;;;5013369;28;20502;-59
2022/11/24 07:56:44;;;;;;;7.20;3.10;;;8.20;99.90;;;;;;5013514;28;20549;-59
2022/11/24 07:59:11;;;;;;;7.43;3.43;;;8.30;99.90;;;;;;5013446;28;20459;-59
2022/11/24 08:01:38;;;;;;;8.63;2.83;;;8.20;99.90;;;;;;5013781;28;20526;-59
2022/11/24 08:04:06;;;;;;;4.40;1.97;;;8.30;99.90;;;;;;5013721;28;20482;-59
2022/11/24 08:06:33;;;;;;;6.77;2.57;;;8.20;99.90;;;;;;5013539;28;21036;-59
2022/11/24 08:09:00;;;;;;;5.47;2.30;;;8.30;99.90;;;;;;5013863;28;20475;-59
2022/11/24 08:11:30;;;;;;;6.20;3.13;;;8.30;99.90;;;;;;5013363;28;21073;-59
2022/11/24 08:13:57;;;;;;;3.43;2.77;;;8.30;99.90;;;;;;5012805;28;20824;-60
2022/11/24 08:16:24;;;;;;;7.33;2.80;;;8.20;99.90;;;;;;5013434;28;21014;-59
2022/11/24 08:18:53;;;;;;;6.80;2.73;;;8.30;99.90;;;;;;5013241;28;20451;-59
2022/11/24 08:21:22;;;;;;;5.77;2.70;;;8.30;99.90;;;;;;5013835;28;20522;-59
2022/11/24 08:23:50;;;;;;;4.77;2.70;;;8.40;99.90;;;;;;5013697;28;20530;-58
2022/11/24 08:26:18;;;;;;;5.60;3.10;;;8.40;99.90;;;;;;5013668;28;20525;-59
2022/11/24 08:28:47;;;;;;;4.27;2.67;;;8.40;99.90;;;;;;5013338;28;20541;-59
2022/11/24 08:31:18;;;;;;;5.70;3.27;;;8.40;99.90;;;;;;5013663;28;20447;-59
2022/11/24 08:33:46;;;;;;;5.57;2.20;;;8.40;99.90;;;;;;5013229;28;20439;-59
2022/11/24 08:36:14;;;;;;;3.30;2.60;;;8.30;99.90;;;;;;5013017;28;20486;-60
2022/11/24 08:38:43;;;;;;;3.77;2.47;;;8.30;99.90;;;;;;5013303;28;20489;-58
2022/11/24 08:41:12;;;;;;;3.00;1.93;;;8.40;99.90;;;;;;5013222;28;20482;-59
2022/11/24 08:43:39;;;;;;;4.17;2.10;;;8.30;99.90;;;;;;5013522;28;20889;-58
2022/11/24 08:46:11;;;;;;;7.13;3.80;;;8.40;99.90;;;;;;5013285;28;20550;-58
2022/11/24 08:48:38;;;;;;;2.63;2.40;;;8.40;99.90;;;;;;5013156;28;20522;-58
2022/11/24 08:51:08;;;;;;;3.80;1.97;;;8.40;99.90;;;;;;5013108;28;20504;-57
2022/11/24 08:53:35;;;;;;;2.10;1.80;;;8.40;99.90;;;;;;5013165;28;20475;-57
2022/11/24 08:56:03;;;;;;;2.27;1.90;;;8.40;99.90;;;;;;5012804;28;20539;-61
2022/11/24 08:58:32;;;;;;;3.57;2.00;;;8.40;99.90;;;;;;5012324;28;20489;-58
2022/11/24 09:01:04;;;;;;;6.53;2.10;;;8.30;99.90;;;;;;5012522;28;20491;-59
2022/11/24 09:03:33;;;;;;;2.97;1.90;;;8.30;99.90;;;;;;5012930;28;20431;-59
2022/11/24 09:06:01;;;;;;;2.03;1.80;;;8.20;99.90;;;;;;5012517;28;20471;-60
2022/11/24 09:08:30;;;;;;;4.00;1.87;;;8.30;99.90;;;;;;5012905;28;20541;-61
2022/11/24 09:11:00;;;;;;;5.00;1.87;;;8.30;99.90;;;;;;5012503;28;20561;-59
2022/11/24 09:13:27;;;;;;;1.97;1.40;;;8.30;99.90;;;;;;5013624;28;20817;-60
2022/11/24 09:15:54;;;;;;;2.43;1.73;;;8.30;99.90;;;;;;5012552;28;21011;-59
2022/11/24 09:18:22;;;;;;;2.03;1.80;;;8.40;99.90;;;;;;5012906;28;20443;-59
2022/11/24 09:20:51;;;;;;;6.13;1.57;;;8.40;99.90;;;;;;5013088;28;20566;-60
2022/11/24 09:23:18;;;;;;;2.00;1.70;;;8.40;99.90;;;;;;5012551;28;20451;-60
2022/11/24 09:25:45;;;;;;;6.13;1.63;;;8.60;99.90;;;;;;5013767;28;20506;-60
2022/11/24 09:28:12;;;;;;;2.40;2.00;;;8.70;99.90;;;;;;5015959;28;20535;-59
2022/11/24 09:30:40;;;;;;;3.50;2.30;;;8.50;99.90;;;;;;5016268;28;20443;-59
2022/11/24 09:33:07;;;;;;;4.43;2.10;;;8.50;99.90;;;;;;5015589;28;20447;-60
2022/11/24 09:35:37;;;;;;;4.53;1.80;;;8.60;99.90;;;;;;5015892;28;20482;-60
2022/11/24 09:38:05;;;;;;;2.50;1.47;;;8.50;99.90;;;;;;5015896;28;20501;-60
2022/11/24 09:40:33;;;;;;;2.23;2.03;;;8.60;99.90;;;;;;5015415;28;20537;-61
2022/11/24 09:43:05;;;;;;;1.53;1.43;;;8.60;99.90;;;;;;5015386;28;20960;-59
2022/11/24 09:45:46;;;;;;;1.90;1.70;;;8.70;99.90;;;;;;5015991;28;20837;-59
2022/11/24 09:48:22;;;;;;;2.27;1.53;;;8.60;99.90;;;;;;5016068;28;20900;-60
2022/11/24 09:50:52;;;;;;;2.13;1.67;;;8.70;99.90;;;;;;5016069;28;20485;-60
2022/11/24 09:53:29;;;;;;;2.10;1.77;;;8.70;99.90;;;;;;5015684;28;20447;-60
2022/11/24 09:55:59;;;;;;;2.27;1.53;;;8.90;99.90;;;;;;5015942;28;20505;-60
2022/11/24 09:58:37;;;;;;;2.20;1.60;;;8.80;99.90;;;;;;5015672;28;20451;-60
2022/11/24 10:01:12;;;;;;;1.87;1.40;;;8.90;99.90;;;;;;5015882;28;20562;-60
2022/11/24 10:03:43;;;;;;;1.60;1.50;;;9.00;99.90;;;;;;5016279;28;20473;-60
2022/11/24 10:06:20;;;;;;;1.50;1.30;;;9.00;99.90;;;;;;5015592;28;20562;-60
2022/11/24 10:09:13;;;;;;;1.50;1.30;;;8.90;99.90;;;;;;5015389;28;20466;-60
2022/11/24 10:11:46;;;;;;;2.73;1.80;;;9.00;99.90;;;;;;5015434;28;20474;-59
2022/11/24 10:14:41;;;;;;;2.00;1.80;;;9.00;99.90;;;;;;5015625;28;20435;-59
2022/11/24 10:17:17;;;;;;;1.87;1.40;;;9.20;99.90;;;;;;5015417;28;20535;-60
2022/11/24 10:19:51;;;;;;;1.97;1.80;;;9.40;99.90;;;;;;5015758;28;20431;-60
2022/11/24 10:22:35;;;;;;;1.80;1.50;;;9.70;99.90;;;;;;5015359;28;20829;-59
2022/11/24 10:25:18;;;;;;;1.90;1.47;;;9.90;99.90;;;;;;5015735;28;20553;-60
2022/11/24 10:27:48;;;;;;;2.20;1.50;;;9.90;99.90;;;;;;5015235;28;20977;-60
2022/11/24 10:30:18;;;;;;;2.90;1.80;;;9.80;99.90;;;;;;5015145;28;20964;-59
2022/11/24 10:32:48;;;;;;;4.90;1.73;;;9.80;99.90;;;;;;5015281;28;20427;-60
2022/11/24 10:35:20;;;;;;;1.90;1.80;;;9.70;99.90;;;;;;5014796;28;20506;-60
2022/11/24 10:37:58;;;;;;;2.13;1.60;;;9.70;99.90;;;;;;5014531;28;20424;-59
2022/11/24 10:40:34;;;;;;;1.63;1.53;;;9.90;99.90;;;;;;5015489;28;20498;-59
2022/11/24 10:43:01;;;;;;;1.40;1.30;;;9.90;99.90;;;;;;5015339;28;20797;-60
2022/11/24 10:45:29;;;;;;;1.40;1.30;;;10.40;99.90;;;;;;5014651;28;20559;-59
2022/11/24 10:47:58;;;;;;;2.80;1.50;;;10.70;99.90;;;;;;5014828;28;20457;-59
2022/11/24 10:50:27;;;;;;;1.60;1.30;;;10.90;99.90;;;;;;5015042;28;20454;-60
2022/11/24 10:53:02;;;;;;;1.40;1.27;;;12.00;99.90;;;;;;5015000;28;20475;-60
2022/11/24 10:56:01;;;;;;;1.77;1.40;;;13.40;99.90;;;;;;5014833;28;20553;-60
2022/11/24 10:58:31;;;;;;;1.50;1.30;;;14.10;99.90;;;;;;5014760;28;20447;-60
2022/11/24 11:01:00;;;;;;;1.73;1.60;;;13.00;99.90;;;;;;5014920;28;20487;-59
2022/11/24 11:03:31;;;;;;;1.50;1.40;;;12.30;99.90;;;;;;5014856;28;20545;-59
2022/11/24 11:06:04;;;;;;;3.70;1.47;;;11.90;99.90;;;;;;5014753;28;20577;-59
2022/11/24 11:08:32;;;;;;;1.40;1.20;;;11.50;99.90;;;;;;5014458;28;20442;-60
2022/11/24 11:11:18;;;;;;;1.83;1.37;;;11.10;99.90;;;;;;5013982;28;20525;-58
2022/11/24 11:13:53;;;;;;;2.33;1.60;;;10.70;99.90;;;;;;5014532;28;20812;-59
2022/11/24 11:16:29;;;;;;;2.13;1.70;;;10.50;99.90;;;;;;5014433;28;20471;-59
2022/11/24 11:18:56;;;;;;;4.67;1.93;;;10.60;99.90;;;;;;5014543;28;20438;-58
2022/11/24 11:21:32;;;;;;;2.60;2.40;;;10.60;99.90;;;;;;5013958;28;20489;-58
2022/11/24 11:24:01;;;;;;;2.33;1.20;;;11.20;99.90;;;;;;5013545;28;20431;-59
2022/11/24 11:26:37;;;;;;;1.40;1.30;;;12.70;99.90;;;;;;5013969;28;20463;-58
2022/11/24 11:29:19;;;;;;;2.00;1.83;;;12.60;99.90;;;;;;5013586;28;20435;-58
2022/11/24 11:31:59;;;;;;;1.80;1.60;;;12.30;99.90;;;;;;5013784;28;20955;-58
2022/11/24 11:34:26;;;;;;;1.70;1.47;;;11.70;99.90;;;;;;5013787;28;20454;-58
2022/11/24 11:36:56;;;;;;;3.10;2.83;;;11.90;99.90;;;;;;5013462;28;21000;-58
2022/11/24 11:39:28;;;;;;;3.30;1.47;;;12.70;99.90;;;;;;5013733;28;20976;-60
2022/11/24 11:42:14;;;;;;;2.87;1.70;;;12.80;99.90;;;;;;5013692;28;20849;-59
2022/11/24 11:44:47;;;;;;;2.70;1.20;;;13.10;99.90;;;;;;5013846;28;20470;-59
2022/11/24 11:47:25;;;;;;;5.20;2.30;;;12.80;99.90;;;;;;5013187;28;20850;-59
2022/11/24 11:49:52;;;;;;;10.50;5.23;;;12.00;99.90;;;;;;5013027;28;20523;-58
2022/11/24 11:52:48;;;;;;;5.13;2.70;;;11.30;99.90;;;;;;5013508;28;21015;-58
2022/11/24 11:55:41;;;;;;;7.13;1.90;;;11.00;99.90;;;;;;5012060;28;20475;-59
2022/11/24 11:58:44;;;;;;;3.50;2.30;;;10.60;99.90;;;;;;5009947;28;20949;-59
2022/11/24 12:01:29;;;;;;;3.10;2.27;;;10.50;99.90;;;;;;5010196;28;20481;-58
2022/11/24 12:04:13;;;;;;;6.40;2.70;;;10.30;99.90;;;;;;5013515;28;20431;-59
2022/11/24 12:07:16;;;;;;;3.20;2.90;;;10.40;99.90;;;;;;5012832;28;20503;-58
2022/11/24 12:10:01;;;;;;;3.63;1.93;;;10.40;99.90;;;;;;5013466;28;20435;-59
2022/11/24 12:12:48;;;;;;;3.80;1.70;;;10.40;99.90;;;;;;5012872;28;20477;-58
2022/11/24 12:15:23;;;;;;;3.93;2.40;;;10.50;99.90;;;;;;5013367;28;20529;-58
2022/11/24 12:17:55;;;;;;;4.60;2.90;;;10.90;99.90;;;;;;5013109;28;20832;-59
2022/11/24 12:20:42;;;;;;;4.87;2.10;;;11.10;99.90;;;;;;5013356;28;20502;-58
2022/11/24 12:23:20;;;;;;;5.83;2.40;;;11.30;99.90;;;;;;5012865;28;20850;-59
2022/11/24 12:25:55;;;;;;;4.30;2.00;;;11.30;99.90;;;;;;5012794;28;20470;-58
2022/11/24 12:28:36;;;;;;;4.60;2.17;;;11.30;99.90;;;;;;5012872;28;20463;-58
2022/11/24 12:31:08;;;;;;;10.23;2.20;;;11.30;99.90;;;;;;5013500;28;20423;-58
2022/11/24 12:34:00;;;;;;;6.90;1.80;;;11.00;99.90;;;;;;5013443;28;20455;-57
2022/11/24 12:36:40;;;;;;;5.03;1.90;;;11.00;99.90;;;;;;5012604;28;20498;-59
2022/11/24 12:39:23;;;;;;;6.30;2.57;;;11.00;99.90;;;;;;5012613;28;20526;-58
2022/11/24 12:42:04;;;;;;;11.30;2.47;;;11.10;99.90;;;;;;5013053;28;20554;-58
2022/11/24 12:44:54;;;;;;;3.20;1.93;;;11.10;99.90;;;;;;5012753;28;20906;-58
2022/11/24 12:47:31;;;;;;;3.83;2.10;;;11.10;99.90;;;;;;5009803;28;20510;-58
2022/11/24 12:50:07;;;;;;;4.70;2.90;;;11.10;99.90;;;;;;5013470;28;20493;-59
2022/11/24 12:52:39;;;;;;;9.50;2.27;;;11.10;99.90;;;;;;5013329;28;20423;-59
2022/11/24 12:55:15;;;;;;;2.13;1.70;;;11.20;99.90;;;;;;5013006;28;20506;-59
2022/11/24 12:57:47;;;;;;;5.87;2.53;;;11.30;99.90;;;;;;5013532;28;20461;-58
2022/11/24 13:00:21;;;;;;;3.93;2.60;;;11.30;99.90;;;;;;5013608;28;20428;-58
2022/11/24 13:03:06;;;;;;;2.50;2.20;;;11.40;99.90;;;;;;5016927;28;20467;-58
2022/11/24 13:05:41;;;;;;;5.57;2.10;;;11.30;99.90;;;;;;5017795;28;20851;-58
2022/11/24 13:08:08;;;;;;;8.33;2.10;;;11.40;99.90;;;;;;5017207;28;20514;-58
2022/11/24 13:10:37;;;;;;;4.57;2.07;;;11.60;99.90;;;;;;5016948;28;20626;-58
2022/11/24 13:13:06;;;;;;;6.97;2.40;;;12.00;99.90;;;;;;5016728;28;20463;-59